createdAt,value
2019-05-19T00:01:53.875Z,14.38
2019-05-19T00:04:24.003Z,12.20
2019-05-19T00:06:55.526Z,11.25
2019-05-19T00:09:25.786Z,13.70
2019-05-19T00:11:56.852Z,13.03
2019-05-19T00:14:27.130Z,20.02
2019-05-19T00:16:58.338Z,12.55
2019-05-19T00:19:28.570Z,14.40
2019-05-19T00:21:58.734Z,14.18
2019-05-19T00:24:28.894Z,13.50
2019-05-19T00:27:00.162Z,13.25
2019-05-19T00:29:30.315Z,11.60
2019-05-19T00:32:00.466Z,13.35
2019-05-19T00:34:30.767Z,12.07
2019-05-19T00:37:00.983Z,13.72
2019-05-19T00:39:31.321Z,11.73
2019-05-19T00:42:01.432Z,12.82
2019-05-19T00:44:31.578Z,12.28
2019-05-19T00:47:01.707Z,15.63
2019-05-19T00:49:41.046Z,14.65
2019-05-19T00:52:03.917Z,11.83
2019-05-19T00:54:34.071Z,11.97
2019-05-19T00:57:04.820Z,12.15
2019-05-19T00:59:35.718Z,13.13
2019-05-19T01:02:05.896Z,15.38
2019-05-19T01:04:36.049Z,11.05
2019-05-19T01:07:06.280Z,11.53
2019-05-19T01:09:36.521Z,12.35
2019-05-19T01:12:06.680Z,15.03
2019-05-19T01:14:36.826Z,15.32
2019-05-19T01:17:06.941Z,11.45
2019-05-19T01:19:37.216Z,12.63
2019-05-19T01:22:08.329Z,13.05
2019-05-19T01:24:38.491Z,14.38
2019-05-19T01:27:08.597Z,13.85
2019-05-19T01:29:38.769Z,13.62
2019-05-19T01:32:08.953Z,13.78
2019-05-19T01:34:39.113Z,12.43
2019-05-19T01:37:09.327Z,12.30
2019-05-19T01:39:39.564Z,12.98
2019-05-19T01:42:09.739Z,13.72
2019-05-19T01:44:39.869Z,13.30
2019-05-19T01:47:09.991Z,14.55
2019-05-19T01:49:40.130Z,13.78
2019-05-19T01:52:10.356Z,12.60
2019-05-19T01:54:40.457Z,12.47
2019-05-19T01:57:10.607Z,13.70
2019-05-19T01:59:40.765Z,12.00
2019-05-19T02:02:10.915Z,12.80
2019-05-19T02:04:41.067Z,15.53
2019-05-19T02:07:12.303Z,12.78
2019-05-19T02:09:42.517Z,11.55
2019-05-19T02:12:12.871Z,11.50
2019-05-19T02:14:42.996Z,13.83
2019-05-19T02:17:14.215Z,13.70
2019-05-19T02:19:44.338Z,12.60
2019-05-19T02:22:14.487Z,14.55
2019-05-19T02:24:44.604Z,14.30
2019-05-19T02:27:14.827Z,12.40
2019-05-19T02:29:45.197Z,15.72
2019-05-19T02:32:15.350Z,15.28
2019-05-19T02:34:45.468Z,14.10
2019-05-19T02:37:15.612Z,11.73
2019-05-19T02:39:45.710Z,11.63
2019-05-19T02:42:19.101Z,12.90
2019-05-19T02:44:50.658Z,11.78
2019-05-19T02:47:22.324Z,15.38
2019-05-19T02:49:54.914Z,12.40
2019-05-19T02:52:26.972Z,13.53
2019-05-19T02:54:58.944Z,12.98
2019-05-19T02:57:29.680Z,17.48
2019-05-19T03:00:01.194Z,12.95
2019-05-19T03:02:31.681Z,13.88
2019-05-19T03:05:02.001Z,13.13
2019-05-19T03:07:34.217Z,14.43
2019-05-19T03:10:04.039Z,13.35
2019-05-19T03:12:34.223Z,12.93
2019-05-19T03:15:04.598Z,16.50
2019-05-19T03:17:34.759Z,14.75
2019-05-19T03:20:05.007Z,15.68
2019-05-19T03:22:35.188Z,18.07
2019-05-19T03:25:05.823Z,14.38
2019-05-19T03:27:36.050Z,14.43
2019-05-19T03:30:24.233Z,17.23
2019-05-19T03:32:58.794Z,16.95
2019-05-19T03:35:28.936Z,14.60
2019-05-19T03:37:59.112Z,16.80
2019-05-19T03:40:29.380Z,14.00
2019-05-19T03:42:59.527Z,15.13
2019-05-19T03:45:29.723Z,17.73
2019-05-19T03:47:59.851Z,18.65
2019-05-19T03:50:30.610Z,16.50
2019-05-19T03:53:01.127Z,14.40
2019-05-19T03:55:31.227Z,20.02
2019-05-19T03:58:01.373Z,15.43
2019-05-19T04:00:31.510Z,17.25
2019-05-19T04:03:01.714Z,15.20
2019-05-19T04:05:31.826Z,16.73
2019-05-19T04:08:05.633Z,15.15
2019-05-19T04:10:34.401Z,15.05
2019-05-19T04:13:04.659Z,16.07
2019-05-19T04:15:34.968Z,19.32
2019-05-19T04:18:05.181Z,19.02
2019-05-19T04:20:35.472Z,18.02
2019-05-19T04:23:05.789Z,18.67
2019-05-19T04:25:35.995Z,19.77
2019-05-19T04:28:06.188Z,21.27
2019-05-19T04:30:36.384Z,17.27
2019-05-19T04:33:06.736Z,19.05
2019-05-19T04:35:36.983Z,18.23
2019-05-19T04:38:07.256Z,19.67
2019-05-19T04:40:37.560Z,22.20
2019-05-19T04:43:07.758Z,20.72
2019-05-19T04:45:38.021Z,18.17
2019-05-19T04:48:09.569Z,23.67
2019-05-19T04:50:40.156Z,22.37
2019-05-19T04:53:10.396Z,16.95
2019-05-19T04:55:40.581Z,18.17
2019-05-19T04:58:10.733Z,17.92
2019-05-19T05:00:40.913Z,18.00
2019-05-19T05:03:11.187Z,22.00
2019-05-19T05:05:41.381Z,19.00
2019-05-19T05:08:27.936Z,18.07
2019-05-19T05:10:43.315Z,16.55
2019-05-19T05:13:13.475Z,18.62
2019-05-19T05:15:48.060Z,16.55
2019-05-19T05:18:21.054Z,14.93
2019-05-19T05:20:51.225Z,17.17
2019-05-19T05:23:21.431Z,17.70
2019-05-19T05:25:51.690Z,18.27
2019-05-19T05:28:23.959Z,16.02
2019-05-19T05:30:55.906Z,16.37
2019-05-19T05:33:27.016Z,17.15
2019-05-19T05:35:57.250Z,17.85
2019-05-19T05:38:27.485Z,17.25
2019-05-19T05:40:57.661Z,19.95
2019-05-19T05:43:27.840Z,17.62
2019-05-19T05:46:00.378Z,14.93
2019-05-19T05:48:32.854Z,17.17
2019-05-19T05:51:04.613Z,15.72
2019-05-19T05:53:35.631Z,18.12
2019-05-19T05:56:05.839Z,14.73
2019-05-19T05:58:36.120Z,17.42
2019-05-19T06:01:06.307Z,16.52
2019-05-19T06:03:36.528Z,15.08
2019-05-19T06:06:06.935Z,15.80
2019-05-19T06:08:37.331Z,14.30
2019-05-19T06:11:09.924Z,15.30
2019-05-19T06:13:40.241Z,15.13
2019-05-19T06:16:12.195Z,11.30
2019-05-19T06:18:42.514Z,14.23
2019-05-19T06:21:14.291Z,15.20
2019-05-19T06:23:44.514Z,12.73
2019-05-19T06:26:14.841Z,13.65
2019-05-19T06:28:45.078Z,13.58
2019-05-19T06:31:15.443Z,15.40
2019-05-19T06:33:48.411Z,10.53
2019-05-19T06:36:18.595Z,10.50
2019-05-19T06:38:49.306Z,10.60
2019-05-19T06:41:21.078Z,10.28
2019-05-19T06:43:51.480Z,9.73
2019-05-19T06:46:21.758Z,11.05
2019-05-19T06:48:52.505Z,9.00
2019-05-19T06:51:22.681Z,9.68
2019-05-19T06:53:53.038Z,9.18
2019-05-19T06:56:23.289Z,8.98
2019-05-19T06:59:00.844Z,11.15
2019-05-19T07:01:31.102Z,9.03
2019-05-19T07:04:01.482Z,8.05
2019-05-19T07:06:34.182Z,14.73
2019-05-19T07:09:07.272Z,8.53
2019-05-19T07:11:40.368Z,8.33
2019-05-19T07:14:10.543Z,9.18
2019-05-19T07:16:41.928Z,8.35
2019-05-19T07:19:12.162Z,9.00
2019-05-19T07:21:42.336Z,8.48
2019-05-19T07:24:12.975Z,10.08
2019-05-19T07:26:44.313Z,11.30
2019-05-19T07:29:14.630Z,8.15
2019-05-19T07:31:46.139Z,7.70
2019-05-19T07:34:16.357Z,7.35
2019-05-19T07:36:46.598Z,8.20
2019-05-19T07:39:16.738Z,6.90
2019-05-19T07:41:49.879Z,9.00
2019-05-19T07:44:20.068Z,6.42
2019-05-19T07:46:51.887Z,6.05
2019-05-19T07:49:22.083Z,5.97
2019-05-19T07:51:55.276Z,4.75
2019-05-19T07:54:26.806Z,4.97
2019-05-19T07:56:56.979Z,4.75
2019-05-19T07:59:27.152Z,6.83
2019-05-19T08:01:57.284Z,5.58
2019-05-19T08:04:27.817Z,6.75
2019-05-19T08:07:00.351Z,5.60
2019-05-19T08:09:32.335Z,4.87
2019-05-19T08:12:03.145Z,5.22
2019-05-19T08:14:33.459Z,3.65
2019-05-19T08:17:03.919Z,5.30
2019-05-19T08:19:35.910Z,5.75
2019-05-19T08:22:06.251Z,7.58
2019-05-19T08:24:37.520Z,6.83
2019-05-19T08:27:07.687Z,5.80
2019-05-19T08:29:38.011Z,8.45
2019-05-19T08:32:08.266Z,7.65
2019-05-19T08:34:39.641Z,6.80
2019-05-19T08:37:10.026Z,9.68
2019-05-19T08:39:47.843Z,9.08
2019-05-19T08:42:18.059Z,11.97
2019-05-19T08:44:48.177Z,8.43
2019-05-19T08:47:20.999Z,7.45
2019-05-19T08:49:52.699Z,10.32
2019-05-19T08:52:22.951Z,7.40
2019-05-19T08:54:53.183Z,7.85
2019-05-19T08:57:25.689Z,10.50
2019-05-19T08:59:55.922Z,8.68
2019-05-19T09:02:26.215Z,12.28
2019-05-19T09:04:56.373Z,7.85
2019-05-19T09:07:26.654Z,7.80
2019-05-19T09:09:56.845Z,9.98
2019-05-19T09:12:27.008Z,10.13
2019-05-19T09:14:57.214Z,9.15
2019-05-19T09:17:27.431Z,10.60
2019-05-19T09:19:57.567Z,11.63
2019-05-19T09:22:29.429Z,11.63
2019-05-19T09:25:01.191Z,10.00
2019-05-19T09:27:31.413Z,10.80
2019-05-19T09:30:01.739Z,13.40
2019-05-19T09:32:32.301Z,12.28
2019-05-19T09:35:07.365Z,9.80
2019-05-19T09:37:40.919Z,9.60
2019-05-19T09:40:12.185Z,9.75
2019-05-19T09:42:42.362Z,14.07
2019-05-19T09:45:12.867Z,9.85
2019-05-19T09:47:43.415Z,9.58
2019-05-19T09:50:17.340Z,8.40
2019-05-19T09:52:50.071Z,9.48
2019-05-19T09:55:19.932Z,8.20
2019-05-19T09:57:53.231Z,8.68
2019-05-19T10:00:23.362Z,9.85
2019-05-19T10:02:53.835Z,8.05
2019-05-19T10:05:25.335Z,7.37
2019-05-19T10:07:55.530Z,7.75
2019-05-19T10:10:48.798Z,7.97
2019-05-19T10:13:19.037Z,7.10
2019-05-19T10:15:50.227Z,8.18
2019-05-19T10:18:27.877Z,8.10
2019-05-19T10:20:59.961Z,6.67
2019-05-19T10:23:30.386Z,7.80
2019-05-19T10:26:00.608Z,6.95
2019-05-19T10:28:30.814Z,7.72
2019-05-19T10:31:02.826Z,7.75
2019-05-19T10:33:35.677Z,7.78
2019-05-19T10:36:05.924Z,13.00
2019-05-19T10:38:36.230Z,6.55
2019-05-19T10:41:06.387Z,7.78
2019-05-19T10:43:36.773Z,6.67
2019-05-19T10:46:06.904Z,7.87
2019-05-19T10:48:37.922Z,8.20
2019-05-19T10:51:12.830Z,7.92
2019-05-19T10:53:45.093Z,11.55
2019-05-19T10:56:18.965Z,6.92
2019-05-19T10:58:48.391Z,8.08
2019-05-19T11:01:21.310Z,7.25
2019-05-19T11:03:59.691Z,7.67
2019-05-19T11:06:30.488Z,7.80
2019-05-19T11:09:00.890Z,7.62
2019-05-19T11:11:32.936Z,7.80
2019-05-19T11:14:03.365Z,9.83
2019-05-19T11:16:37.605Z,7.95
2019-05-19T11:19:07.842Z,7.65
2019-05-19T11:21:38.057Z,7.37
2019-05-19T11:24:08.184Z,7.60
2019-05-19T11:26:38.396Z,7.70
2019-05-19T11:29:09.001Z,9.10
2019-05-19T11:31:39.500Z,9.23
2019-05-19T11:34:11.296Z,6.40
2019-05-19T11:36:48.513Z,10.90
2019-05-19T11:39:18.769Z,10.28
2019-05-19T11:41:49.016Z,8.83
2019-05-19T11:44:19.458Z,6.62
2019-05-19T11:46:49.642Z,9.48
2019-05-19T11:49:29.123Z,6.25
2019-05-19T11:52:03.199Z,7.17
2019-05-19T11:54:33.354Z,5.67
2019-05-19T11:57:03.662Z,5.67
2019-05-19T11:59:33.930Z,6.80
2019-05-19T12:02:06.117Z,4.53
2019-05-19T12:04:40.829Z,4.53
2019-05-19T12:07:11.986Z,7.65
2019-05-19T12:09:42.202Z,5.55
2019-05-19T12:12:12.448Z,12.13
2019-05-19T12:14:44.283Z,4.17
2019-05-19T12:17:17.277Z,6.28
2019-05-19T12:19:48.694Z,5.80
2019-05-19T12:22:19.682Z,5.42
2019-05-19T12:24:50.004Z,5.55
2019-05-19T12:27:20.269Z,5.37
2019-05-19T12:29:50.660Z,5.33
2019-05-19T12:32:23.389Z,4.47
2019-05-19T12:34:58.519Z,5.05
2019-05-19T12:37:31.665Z,7.53
2019-05-19T12:40:03.621Z,5.75
2019-05-19T12:42:35.375Z,6.75
2019-05-19T12:45:08.355Z,5.30
2019-05-19T12:47:48.233Z,4.30
2019-05-19T12:50:27.293Z,5.45
2019-05-19T12:53:10.530Z,4.95
2019-05-19T12:55:44.050Z,4.83
2019-05-19T12:58:14.438Z,4.75
2019-05-19T13:00:44.839Z,4.85
2019-05-19T13:03:16.576Z,3.70
2019-05-19T13:05:51.694Z,6.28
2019-05-19T13:08:26.350Z,4.92
2019-05-19T13:11:06.431Z,5.33
2019-05-19T13:13:37.883Z,5.95
2019-05-19T13:16:08.243Z,5.90
2019-05-19T13:18:39.811Z,5.00
2019-05-19T13:21:11.618Z,5.22
2019-05-19T13:23:48.752Z,4.80
2019-05-19T13:26:19.041Z,7.72
2019-05-19T13:28:49.601Z,6.85
2019-05-19T13:31:19.935Z,6.62
2019-05-19T13:33:50.078Z,8.00
2019-05-19T13:36:22.809Z,7.08
2019-05-19T13:38:56.587Z,5.62
2019-05-19T13:41:26.708Z,6.53
2019-05-19T13:43:59.539Z,7.28
2019-05-19T13:46:28.697Z,9.43
2019-05-19T13:48:58.846Z,8.00
2019-05-19T13:51:28.999Z,7.17
2019-05-19T13:54:00.026Z,7.55
2019-05-19T13:56:33.543Z,8.38
2019-05-19T13:59:03.985Z,5.20
2019-05-19T14:01:34.256Z,7.90
2019-05-19T14:04:05.941Z,5.55
2019-05-19T14:06:39.042Z,7.25
2019-05-19T14:09:09.540Z,8.25
2019-05-19T14:11:40.223Z,7.83
2019-05-19T14:14:10.404Z,6.37
2019-05-19T14:16:40.622Z,9.33
2019-05-19T14:19:12.259Z,5.62
2019-05-19T14:21:44.541Z,6.12
2019-05-19T14:24:17.614Z,6.33
2019-05-19T14:26:50.838Z,5.50
2019-05-19T14:29:21.215Z,6.05
2019-05-19T14:31:51.418Z,5.58
2019-05-19T14:34:21.752Z,8.23
2019-05-19T14:36:54.007Z,6.42
2019-05-19T14:39:24.781Z,7.62
2019-05-19T14:41:59.140Z,4.87
2019-05-19T14:44:33.596Z,6.17
2019-05-19T14:47:03.747Z,7.45
2019-05-19T14:49:33.993Z,7.72
2019-05-19T14:52:04.680Z,4.83
2019-05-19T14:54:36.385Z,6.78
2019-05-19T14:57:06.583Z,6.62
2019-05-19T14:59:36.935Z,9.25
2019-05-19T15:02:07.094Z,5.30
2019-05-19T15:04:37.169Z,5.08
2019-05-19T15:07:07.949Z,4.10
2019-05-19T15:09:38.057Z,4.50
2019-05-19T15:12:08.185Z,5.10
2019-05-19T15:14:38.309Z,6.15
2019-05-19T15:17:08.411Z,5.20
2019-05-19T15:19:38.668Z,5.50
2019-05-19T15:22:08.809Z,7.00
2019-05-19T15:24:38.967Z,5.83
2019-05-19T15:27:10.068Z,7.25
2019-05-19T15:29:40.214Z,5.10
2019-05-19T15:32:13.767Z,6.80
2019-05-19T15:34:51.283Z,4.35
2019-05-19T15:37:21.183Z,4.90
2019-05-19T15:39:51.448Z,6.58
2019-05-19T15:42:25.183Z,8.28
2019-05-19T15:45:07.238Z,7.60
2019-05-19T15:47:37.813Z,6.78
2019-05-19T15:50:08.374Z,5.08
2019-05-19T15:52:42.470Z,4.60
2019-05-19T15:55:15.830Z,6.10
2019-05-19T15:57:48.633Z,10.82
2019-05-19T16:00:20.316Z,6.53
2019-05-19T16:02:50.490Z,7.20
2019-05-19T16:05:20.577Z,6.95
2019-05-19T16:07:50.790Z,8.80
2019-05-19T16:10:20.999Z,6.08
2019-05-19T16:12:51.235Z,5.17
2019-05-19T16:15:22.123Z,7.92
2019-05-19T16:17:56.656Z,7.55
2019-05-19T16:20:26.773Z,8.68
2019-05-19T16:22:58.149Z,7.95
2019-05-19T16:25:29.755Z,10.50
2019-05-19T16:28:00.871Z,10.53
2019-05-19T16:30:31.281Z,6.05
2019-05-19T16:33:01.413Z,9.43
2019-05-19T16:35:31.739Z,7.50
2019-05-19T16:38:03.548Z,9.05
2019-05-19T16:40:33.833Z,9.73
2019-05-19T16:43:05.239Z,8.58
2019-05-19T16:45:35.387Z,10.35
2019-05-19T16:48:05.769Z,8.08
2019-05-19T16:50:37.434Z,5.85
2019-05-19T16:53:10.414Z,8.58
2019-05-19T16:55:41.706Z,10.25
2019-05-19T16:58:21.102Z,5.85
2019-05-19T17:00:44.321Z,6.08
2019-05-19T17:03:15.885Z,8.13
2019-05-19T17:05:45.990Z,7.30
2019-05-19T17:08:18.144Z,6.90
2019-05-19T17:10:55.664Z,6.78
2019-05-19T17:13:28.863Z,7.30
2019-05-19T17:16:02.002Z,9.30
2019-05-19T17:18:39.718Z,10.28
2019-05-19T17:21:10.322Z,10.98
2019-05-19T17:23:40.678Z,8.95
2019-05-19T17:26:17.399Z,9.08
2019-05-19T17:28:57.627Z,10.08
2019-05-19T17:31:16.850Z,11.22
2019-05-19T17:33:58.928Z,8.48
2019-05-19T17:36:29.392Z,7.60
2019-05-19T17:39:34.808Z,7.33
2019-05-19T17:42:20.932Z,8.60
2019-05-19T17:44:51.602Z,8.90
2019-05-19T17:47:22.041Z,8.58
2019-05-19T17:49:52.562Z,9.78
2019-05-19T17:52:22.783Z,8.28
2019-05-19T17:54:53.134Z,9.35
2019-05-19T17:57:42.185Z,11.60
2019-05-19T18:00:37.652Z,8.35
2019-05-19T18:03:12.562Z,7.87
2019-05-19T18:05:45.205Z,9.13
2019-05-19T18:08:23.210Z,10.50
2019-05-19T18:11:10.606Z,9.38
2019-05-19T18:17:58.575Z,9.30
2019-05-19T18:20:29.994Z,9.10
2019-05-19T18:26:44.847Z,13.78
2019-05-19T18:29:30.480Z,11.03
2019-05-19T18:31:50.005Z,10.18
2019-05-19T18:34:20.558Z,9.98
2019-05-19T18:36:50.905Z,9.78
2019-05-19T18:39:21.062Z,9.48
2019-05-19T18:41:51.557Z,11.15
2019-05-19T18:44:21.789Z,10.15
2019-05-19T18:46:57.758Z,12.50
2019-05-19T18:49:29.620Z,10.82
2019-05-19T18:52:03.313Z,10.15
2019-05-19T18:54:37.141Z,10.68
2019-05-19T18:57:08.686Z,11.60
2019-05-19T18:59:46.901Z,13.30
2019-05-19T19:02:25.186Z,10.38
2019-05-19T19:05:02.381Z,9.85
2019-05-19T19:08:20.694Z,11.55
2019-05-19T19:10:30.232Z,11.48
2019-05-19T19:13:00.677Z,11.70
2019-05-19T19:15:30.846Z,11.20
2019-05-19T19:18:01.163Z,11.45
2019-05-19T19:20:31.942Z,9.70
2019-05-19T19:23:02.899Z,11.08
2019-05-19T19:25:34.453Z,10.90
2019-05-19T19:28:04.745Z,10.85
2019-05-19T19:30:35.088Z,13.35
2019-05-19T19:33:12.871Z,13.30
2019-05-19T19:35:44.841Z,12.50
2019-05-19T19:38:15.077Z,15.30
2019-05-19T19:40:46.573Z,11.12
2019-05-19T19:43:16.975Z,13.08
2019-05-19T19:45:47.429Z,14.90
2019-05-19T19:48:17.811Z,15.23
2019-05-19T19:50:55.980Z,16.40
2019-05-19T19:53:26.386Z,12.37
2019-05-19T19:55:57.106Z,12.20
2019-05-19T19:58:27.629Z,13.65
2019-05-19T20:00:57.958Z,18.35
2019-05-19T20:03:31.647Z,13.78
2019-05-19T20:06:02.305Z,13.65
2019-05-19T20:08:35.443Z,13.05
2019-05-19T20:11:05.750Z,15.10
2019-05-19T20:13:35.942Z,13.25
2019-05-19T20:16:06.335Z,15.53
2019-05-19T20:18:36.566Z,13.43
2019-05-19T20:21:07.141Z,14.18
2019-05-19T20:23:37.602Z,12.25
2019-05-19T20:26:12.174Z,15.83
2019-05-19T20:28:47.393Z,12.78
2019-05-19T20:31:22.757Z,13.80
2019-05-19T20:33:53.050Z,13.62
2019-05-19T20:36:23.365Z,15.43
2019-05-19T20:38:53.577Z,17.77
2019-05-19T20:41:23.825Z,14.28
2019-05-19T20:43:54.090Z,15.75
2019-05-19T20:46:24.340Z,17.00
2019-05-19T20:48:54.950Z,12.75
2019-05-19T20:51:25.182Z,14.47
2019-05-19T20:53:55.472Z,14.07
2019-05-19T20:56:26.179Z,11.40
2019-05-19T20:58:56.380Z,11.50
2019-05-19T21:01:29.324Z,11.65
2019-05-19T21:04:00.610Z,10.82
2019-05-19T21:06:30.751Z,13.83
2019-05-19T21:09:00.894Z,12.90
2019-05-19T21:11:32.786Z,12.73
2019-05-19T21:14:02.998Z,10.45
2019-05-19T21:16:33.289Z,12.68
2019-05-19T21:19:05.840Z,9.10
2019-05-19T21:21:36.011Z,11.93
2019-05-19T21:24:06.230Z,11.30
2019-05-19T21:26:36.433Z,11.48
2019-05-19T21:29:07.478Z,11.85
2019-05-19T21:31:38.591Z,10.80
2019-05-19T21:34:08.859Z,12.58
2019-05-19T21:36:39.114Z,9.75
2019-05-19T21:39:09.500Z,12.35
2019-05-19T21:41:39.967Z,9.43
2019-05-19T21:44:10.335Z,11.40
2019-05-19T21:46:40.515Z,13.40
2019-05-19T21:49:10.726Z,9.55
2019-05-19T21:51:40.997Z,10.23
2019-05-19T21:54:12.316Z,10.85
2019-05-19T21:56:42.603Z,9.43
2019-05-19T21:59:12.811Z,9.78
2019-05-19T22:01:44.877Z,10.35
2019-05-19T22:04:15.168Z,10.30
2019-05-19T22:06:52.200Z,9.23
2019-05-19T22:12:04.775Z,8.73
2019-05-19T22:14:34.931Z,8.53
2019-05-19T22:17:10.879Z,8.78
2019-05-19T22:19:41.091Z,8.70
2019-05-19T22:22:11.209Z,11.33
2019-05-19T22:24:41.361Z,10.72
2019-05-19T22:27:11.519Z,8.33
2019-05-19T22:29:41.781Z,6.53
2019-05-19T22:32:12.005Z,8.50
2019-05-19T22:34:42.286Z,5.55
2019-05-19T22:37:12.411Z,7.80
2019-05-19T22:39:43.595Z,7.45
2019-05-19T22:42:13.755Z,9.90
2019-05-19T22:44:43.960Z,10.25
2019-05-19T22:47:14.099Z,8.25
2019-05-19T22:49:45.243Z,8.43
2019-05-19T22:52:15.467Z,10.88
2019-05-19T22:54:45.651Z,8.75
2019-05-19T22:57:17.980Z,9.35
2019-05-19T22:59:47.753Z,12.18
2019-05-19T23:02:17.873Z,8.15
2019-05-19T23:04:48.032Z,5.50
2019-05-19T23:07:18.233Z,6.80
2019-05-19T23:09:48.537Z,6.70
2019-05-19T23:12:21.509Z,10.28
2019-05-19T23:14:51.711Z,7.05
2019-05-19T23:17:21.905Z,6.45
2019-05-19T23:19:52.073Z,6.45
2019-05-19T23:22:22.235Z,9.13
2019-05-19T23:24:52.624Z,8.48
2019-05-19T23:27:22.792Z,6.85
2019-05-19T23:29:52.945Z,8.13
2019-05-19T23:32:26.013Z,6.78
2019-05-19T23:34:56.117Z,7.78
2019-05-19T23:37:27.733Z,9.15
2019-05-19T23:39:57.875Z,8.93
2019-05-19T23:42:27.999Z,8.05
2019-05-19T23:44:58.261Z,7.00
2019-05-19T23:47:28.413Z,8.25
2019-05-19T23:49:58.736Z,8.43
2019-05-19T23:52:28.867Z,5.62
2019-05-19T23:54:59.060Z,8.78
2019-05-19T23:57:29.234Z,10.80
2019-05-19T23:59:59.410Z,10.00
